PWSweather.com
Personal Weather Stations
Station Observations

AwhituWaiuku, CA 268400

Lat: -37.058, Lon: -174.6346

Elevation: 250

Station Type: Personal

http://www.weather-display.com/windy/gb/grahamsbeach.htm

Latest ConditionsUpdated 10:00:11 PM GMT-12:48 Sunday, Jan 25, 2015
Currently Today's Max Today's Min Today's Average
Temperature 67.1°F19.5°C 77.1°F25.1°C 62.7°F17.1°C 68.2°F20.1°C
Dew Point 62.1°F16.7°C 62.1°F16.7°C 57.0°F13.9°C 59.5°F15.3°C
Winds 8.1 mph S13.0 kmh S 11.5 mph S18.5 kmh S - 5.9 mph 9.5 kmh
Wind Gusts 11.5 mph18.5 kmh 15.0 mph24.1 kmh - -
Humidity 84% 84% 52% 74%
Pressure 29.95 in1014.2 mb 30.13 in1020.3 mb 29.92 in1013.2 mb -
Hour Temp Dew Point Humidity Winds Wind Gusts Pressure Precip Precip Rate Daily Precip Total
10:00 PM 67.1°F19.5°C 62.1°F16.7°C 84% 8.1 mph S13.0 kmh S 11.5 mph18.5 kmh 29.95 in1014.2 mb 0.00 in0.0 mm 0.00 in/hr0.0 mm/hr 0.00 in0.0 mm
09:30 PM 67.2°F19.6°C 61.6°F16.4°C 82% 8.1 mph S13.0 kmh S 10.4 mph16.7 kmh 29.95 in1014.2 mb 0.00 in0.0 mm 0.00 in/hr0.0 mm/hr 0.00 in0.0 mm
09:00 PM 67.4°F19.7°C 61.3°F16.3°C 81% 4.6 mph S7.4 kmh S 5.8 mph9.3 kmh 29.95 in1014.2 mb 0.00 in0.0 mm 0.00 in/hr0.0 mm/hr 0.00 in0.0 mm
08:30 PM 67.5°F19.7°C 61.1°F16.2°C 80% 8.1 mph S13.0 kmh S 11.5 mph18.5 kmh 29.94 in1013.9 mb 0.00 in0.0 mm 0.00 in/hr0.0 mm/hr 0.00 in0.0 mm
08:00 PM 67.6°F19.8°C 60.9°F16.1°C 79% 5.8 mph S9.3 kmh S 9.2 mph14.8 kmh 29.93 in1013.5 mb 0.00 in0.0 mm 0.00 in/hr0.0 mm/hr 0.00 in0.0 mm
07:30 PM 68.3°F20.2°C 60.4°F15.8°C 76% 6.9 mph S11.1 kmh S 9.2 mph14.8 kmh 29.93 in1013.5 mb 0.00 in0.0 mm 0.00 in/hr0.0 mm/hr 0.00 in0.0 mm
07:00 PM 69.6°F20.9°C 60.9°F16.1°C 74% 8.1 mph SSW13.0 kmh SSW 11.5 mph18.5 kmh 29.92 in1013.2 mb 0.00 in0.0 mm 0.00 in/hr0.0 mm/hr 0.00 in0.0 mm
06:30 PM 70.4°F21.3°C 60.9°F16.1°C 72% 9.2 mph S14.8 kmh S 10.4 mph16.7 kmh 29.92 in1013.2 mb 0.00 in0.0 mm 0.00 in/hr0.0 mm/hr 0.00 in0.0 mm
06:00 PM 71.9°F22.2°C 61.6°F16.4°C 70% 8.1 mph S13.0 kmh S 11.5 mph18.5 kmh 29.92 in1013.2 mb 0.00 in0.0 mm 0.00 in/hr0.0 mm/hr 0.00 in0.0 mm
05:30 PM 73.0°F22.8°C 60.5°F15.8°C 65% 8.1 mph S13.0 kmh S 11.5 mph18.5 kmh 29.92 in1013.2 mb 0.00 in0.0 mm 0.00 in/hr0.0 mm/hr 0.00 in0.0 mm
05:00 PM 73.8°F23.2°C 60.9°F16.1°C 64% 6.9 mph SW11.1 kmh SW 8.1 mph13.0 kmh 29.93 in1013.5 mb 0.00 in0.0 mm 0.00 in/hr0.0 mm/hr 0.00 in0.0 mm
04:30 PM 73.3°F22.9°C 60.8°F16.0°C 65% 11.5 mph S18.5 kmh S 11.5 mph18.5 kmh 29.94 in1013.9 mb 0.00 in0.0 mm 0.00 in/hr0.0 mm/hr 0.00 in0.0 mm
04:00 PM 74.5°F23.6°C 62.0°F16.7°C 65% 6.9 mph SW11.1 kmh SW 15.0 mph24.1 kmh 29.95 in1014.2 mb 0.00 in0.0 mm 0.00 in/hr0.0 mm/hr 0.00 in0.0 mm
03:30 PM 73.0°F22.8°C 61.0°F16.1°C 66% 8.1 mph S13.0 kmh S 9.2 mph14.8 kmh 29.95 in1014.2 mb 0.00 in0.0 mm 0.00 in/hr0.0 mm/hr 0.00 in0.0 mm
03:00 PM 74.2°F23.4°C 61.7°F16.5°C 65% 10.4 mph S16.7 kmh S 13.8 mph22.2 kmh 29.96 in1014.6 mb 0.00 in0.0 mm 0.00 in/hr0.0 mm/hr 0.00 in0.0 mm
02:30 PM 72.1°F22.3°C 60.1°F15.6°C 66% 10.4 mph SW16.7 kmh SW 11.5 mph18.5 kmh 29.97 in1014.9 mb 0.00 in0.0 mm 0.00 in/hr0.0 mm/hr 0.00 in0.0 mm
02:00 PM 74.7°F23.7°C 59.9°F15.5°C 60% 9.2 mph SSE14.8 kmh SSE 11.5 mph18.5 kmh 29.97 in1014.9 mb 0.00 in0.0 mm 0.00 in/hr0.0 mm/hr 0.00 in0.0 mm
01:30 PM 74.1°F23.4°C 60.2°F15.7°C 62% 9.2 mph WSW14.8 kmh WSW 11.5 mph18.5 kmh 29.98 in1015.2 mb 0.00 in0.0 mm 0.00 in/hr0.0 mm/hr 0.00 in0.0 mm
01:00 PM 74.2°F23.4°C 59.9°F15.5°C 61% 5.8 mph WSW9.3 kmh WSW 10.4 mph16.7 kmh 29.99 in1015.6 mb 0.00 in0.0 mm 0.00 in/hr0.0 mm/hr 0.00 in0.0 mm
12:30 PM 77.1°F25.1°C 58.1°F14.5°C 52% 2.3 mph WNW3.7 kmh WNW 6.9 mph11.1 kmh 30.00 in1015.9 mb 0.00 in0.0 mm 0.00 in/hr0.0 mm/hr 0.00 in0.0 mm
08:00 AM 67.6°F19.8°C 59.7°F15.4°C 76% 6.9 mph E11.1 kmh E 11.5 mph18.5 kmh 30.06 in1017.9 mb 0.00 in0.0 mm 0.00 in/hr0.0 mm/hr 0.00 in0.0 mm
07:30 AM 65.6°F18.7°C 58.6°F14.8°C 78% 5.8 mph E9.3 kmh E 6.9 mph11.1 kmh 30.07 in1018.3 mb 0.00 in0.0 mm 0.00 in/hr0.0 mm/hr 0.00 in0.0 mm
07:00 AM 64.7°F18.2°C 58.7°F14.8°C 81% 6.9 mph E11.1 kmh E 9.2 mph14.8 kmh 30.06 in1017.9 mb 0.00 in0.0 mm 0.00 in/hr0.0 mm/hr 0.00 in0.0 mm
06:30 AM 63.9°F17.7°C 58.3°F14.6°C 82% 5.8 mph E9.3 kmh E 8.1 mph13.0 kmh 30.06 in1017.9 mb 0.00 in0.0 mm 0.00 in/hr0.0 mm/hr 0.00 in0.0 mm
06:00 AM 62.7°F17.1°C 57.8°F14.3°C 84% 3.5 mph E5.6 kmh E 4.6 mph7.4 kmh 30.06 in1017.9 mb 0.00 in0.0 mm 0.00 in/hr0.0 mm/hr 0.00 in0.0 mm
05:30 AM 63.3°F17.4°C 58.1°F14.5°C 83% 4.6 mph E7.4 kmh E 6.9 mph11.1 kmh 30.05 in1017.6 mb 0.00 in0.0 mm 0.00 in/hr0.0 mm/hr 0.00 in0.0 mm
05:00 AM 63.1°F17.3°C 58.1°F14.5°C 84% 3.5 mph E5.6 kmh E 3.5 mph5.6 kmh 30.06 in1017.9 mb 0.00 in0.0 mm 0.00 in/hr0.0 mm/hr 0.00 in0.0 mm
04:30 AM 63.3°F17.4°C 57.7°F14.3°C 82% 2.3 mph ESE3.7 kmh ESE 3.5 mph5.6 kmh 30.05 in1017.6 mb 0.00 in0.0 mm 0.00 in/hr0.0 mm/hr 0.00 in0.0 mm
04:00 AM 64.1°F17.8°C 57.8°F14.3°C 80% 1.2 mph E1.9 kmh E 3.5 mph5.6 kmh 30.07 in1018.3 mb 0.00 in0.0 mm 0.00 in/hr0.0 mm/hr 0.00 in0.0 mm
03:30 AM 64.3°F17.9°C 57.7°F14.3°C 79% 3.5 mph E5.6 kmh E 3.5 mph5.6 kmh 30.07 in1018.3 mb 0.00 in0.0 mm 0.00 in/hr0.0 mm/hr 0.00 in0.0 mm
03:00 AM 64.3°F17.9°C 57.6°F14.2°C 79% 2.3 mph NE3.7 kmh NE 3.5 mph5.6 kmh 30.08 in1018.6 mb 0.00 in0.0 mm 0.00 in/hr0.0 mm/hr 0.00 in0.0 mm
02:30 AM 64.0°F17.8°C 57.4°F14.1°C 79% 1.2 mph N1.9 kmh N 2.3 mph3.7 kmh 30.09 in1019.0 mb 0.00 in0.0 mm 0.00 in/hr0.0 mm/hr 0.00 in0.0 mm
02:00 AM 64.2°F17.9°C 57.2°F14.0°C 78% 2.3 mph NE3.7 kmh NE 3.5 mph5.6 kmh 30.09 in1019.0 mb 0.00 in0.0 mm 0.00 in/hr0.0 mm/hr 0.00 in0.0 mm
01:30 AM 64.4°F18.0°C 57.0°F13.9°C 77% 3.5 mph SE5.6 kmh SE 3.5 mph5.6 kmh 30.10 in1019.3 mb 0.00 in0.0 mm 0.00 in/hr0.0 mm/hr 0.00 in0.0 mm
01:00 AM 64.4°F18.0°C 57.3°F14.1°C 78% 3.5 mph E5.6 kmh E 6.9 mph11.1 kmh 30.10 in1019.3 mb 0.00 in0.0 mm 0.00 in/hr0.0 mm/hr 0.00 in0.0 mm
12:30 AM 64.3°F17.9°C 57.3°F14.1°C 78% 2.3 mph NE3.7 kmh NE 3.5 mph5.6 kmh 30.12 in1020.0 mb 0.00 in0.0 mm 0.00 in/hr0.0 mm/hr 0.00 in0.0 mm
12:00 AM 64.5°F18.1°C 57.5°F14.2°C 78% 3.5 mph SE5.6 kmh SE 3.5 mph5.6 kmh 30.13 in1020.3 mb 0.00 in0.0 mm 0.00 in/hr0.0 mm/hr 0.00 in0.0 mm